Time;durP1;ratioP1;P1;durP2;ratioP2;P2;SDS_P1;SDS_P2;PMS_P1;PMS_P2;Temp;Humidity;BMP_temperature;BMP_pressure;BME280_temperature;BME280_humidity;BME280_pressure;Samples;Min_cycle;Max_cycle;Signal;HPM_P1;HPM_P2
2022/01/15 00:03:12;;;;;;;5.30;2.78;;;;;;;3.29;100.00;94962.88;10348153;28;20506;-71
2022/01/15 00:08:13;;;;;;;9.13;3.30;;;;;;;3.27;100.00;94962.28;10347413;28;20029;-72
2022/01/15 00:13:24;;;;;;;6.28;3.03;;;;;;;3.24;100.00;94964.34;10347224;28;20183;-70
2022/01/15 00:18:39;;;;;;;8.63;3.47;;;;;;;3.28;100.00;94953.25;10347058;28;20431;-72
2022/01/15 00:23:41;;;;;;;8.18;3.45;;;;;;;3.26;100.00;94937.56;10347476;28;20164;-74
2022/01/15 00:28:42;;;;;;;6.93;3.28;;;;;;;3.24;100.00;94927.16;10347753;28;20116;-72
2022/01/15 00:33:42;;;;;;;6.93;3.38;;;;;;;3.17;100.00;94950.31;10347199;28;20419;-71
2022/01/15 00:38:44;;;;;;;6.75;3.17;;;;;;;3.24;100.00;94955.56;10365278;28;20041;-71
2022/01/15 00:43:44;;;;;;;6.30;2.97;;;;;;;3.27;100.00;94946.34;10346681;28;20595;-74
2022/01/15 00:48:45;;;;;;;8.07;3.55;;;;;;;3.27;100.00;94959.63;10364052;28;20029;-74
2022/01/15 00:53:45;;;;;;;7.18;3.25;;;;;;;3.24;100.00;94951.06;10347145;28;20069;-71
2022/01/15 00:58:46;;;;;;;9.95;3.47;;;;;;;3.22;100.00;94947.81;10345912;28;20044;-70
2022/01/15 01:03:48;;;;;;;4.85;3.20;;;;;;;3.18;100.00;94945.81;10362218;28;20156;-77
2022/01/15 01:08:48;;;;;;;5.93;3.28;;;;;;;3.18;100.00;94951.94;10346549;28;20053;-77
2022/01/15 01:24:20;;;;;;;10.07;3.80;;;;;;;3.23;100.00;94946.78;10362818;28;20038;-78
2022/01/15 01:29:36;;;;;;;6.07;2.92;;;;;;;3.31;100.00;94958.13;10361354;28;20037;-72
2022/01/15 01:34:40;;;;;;;8.00;3.35;;;;;;;3.31;100.00;94937.72;10362095;28;20037;-73
2022/01/15 01:45:05;;;;;;;5.20;2.83;;;;;;;3.20;100.00;94925.16;10362186;28;20037;-80
2022/01/15 01:50:27;;;;;;;9.63;3.80;;;;;;;3.20;100.00;94925.97;10363369;28;20053;-76
2022/01/15 01:55:28;;;;;;;7.45;3.80;;;;;;;3.16;100.00;94927.44;10343997;28;20549;-76
2022/01/15 02:00:30;;;;;;;11.40;4.43;;;;;;;3.08;100.00;94935.72;10360787;28;20080;-80
2022/01/15 02:05:31;;;;;;;8.40;3.53;;;;;;;3.08;100.00;94941.84;10360739;28;20061;-72
2022/01/15 02:10:32;;;;;;;8.50;4.00;;;;;;;3.16;100.00;94939.94;10368641;28;20407;-71
2022/01/15 02:15:32;;;;;;;4.88;3.42;;;;;;;3.15;100.00;94935.63;10349833;28;20047;-75
2022/01/15 02:25:45;;;;;;;8.80;4.00;;;;;;;3.22;100.00;94944.34;10361323;28;20113;-78
2022/01/15 02:30:45;;;;;;;8.50;3.65;;;;;;;3.27;100.00;94952.47;10358950;28;20168;-75
2022/01/15 02:35:46;;;;;;;8.98;3.50;;;;;;;3.17;100.00;94968.91;10359669;28;20100;-71
2022/01/15 02:40:47;;;;;;;10.30;3.75;;;;;;;3.16;100.00;94959.31;10396638;28;20029;-75
2022/01/15 02:45:55;;;;;;;8.32;4.07;;;;;;;3.20;100.00;94978.28;10382084;28;20047;-77
2022/01/15 02:50:56;;;;;;;9.77;4.40;;;;;;;3.15;100.00;94972.81;10398139;28;20042;-75
2022/01/15 02:55:57;;;;;;;9.85;4.32;;;;;;;3.17;100.00;94958.28;10306301;28;20547;-73
2022/01/15 03:00:57;;;;;;;7.43;3.75;;;;;;;3.14;100.00;94972.00;10277455;28;20044;-71
2022/01/15 03:05:58;;;;;;;6.35;4.40;;;;;;;3.19;100.00;94971.34;10278029;28;20058;-74
2022/01/15 03:11:00;;;;;;;7.35;4.13;;;;;;;3.15;100.00;94981.59;10261015;28;20118;-71
2022/01/15 03:16:01;;;;;;;8.40;4.05;;;;;;;3.10;100.00;94970.84;10261875;28;20119;-72
2022/01/15 03:21:02;;;;;;;9.98;4.50;;;;;;;2.95;100.00;94959.75;10276649;28;20031;-71
2022/01/15 03:26:03;;;;;;;8.35;4.18;;;;;;;2.96;100.00;94962.19;10277023;28;20055;-72
2022/01/15 03:31:04;;;;;;;10.02;4.60;;;;;;;2.97;100.00;94968.31;10293110;28;20489;-75
2022/01/15 03:36:06;;;;;;;13.73;5.82;;;;;;;2.78;100.00;94978.06;10292672;28;20031;-75
2022/01/15 03:41:07;;;;;;;16.52;5.72;;;;;;;2.69;100.00;94981.03;10277182;28;20027;-72
2022/01/15 03:46:07;;;;;;;12.00;4.65;;;;;;;2.66;100.00;94997.34;10278672;28;20031;-71
2022/01/15 03:51:07;;;;;;;11.30;5.20;;;;;;;2.61;100.00;94989.25;10270025;28;20049;-71
2022/01/15 03:56:08;;;;;;;13.63;5.72;;;;;;;2.59;100.00;94995.81;10366298;28;20033;-71
2022/01/15 04:01:08;;;;;;;9.85;4.78;;;;;;;2.63;100.00;95008.41;10381195;28;20099;-75
2022/01/15 04:06:09;;;;;;;11.50;5.20;;;;;;;2.73;100.00;95022.03;10387646;28;20022;-71
2022/01/15 04:11:09;;;;;;;11.45;6.13;;;;;;;2.62;100.00;95024.53;10387045;28;20057;-75
2022/01/15 04:16:10;;;;;;;12.32;5.65;;;;;;;2.65;100.00;95032.06;10404542;28;20022;-76
2022/01/15 04:21:10;;;;;;;15.23;7.00;;;;;;;2.65;100.00;95046.16;10386613;28;20642;-71
2022/01/15 04:26:11;;;;;;;11.90;5.43;;;;;;;2.68;100.00;95056.34;10365126;28;20026;-72
2022/01/15 04:31:11;;;;;;;12.57;5.65;;;;;;;2.67;100.00;95061.88;10349236;28;20092;-79
2022/01/15 04:36:12;;;;;;;14.95;5.95;;;;;;;2.63;100.00;95053.53;10387698;28;20033;-74
2022/01/15 04:41:12;;;;;;;16.55;6.75;;;;;;;2.53;100.00;95082.38;10387663;28;20476;-77
2022/01/15 04:46:13;;;;;;;15.20;6.45;;;;;;;2.52;100.00;95072.78;10364153;28;20026;-71
2022/01/15 04:51:13;;;;;;;18.27;7.47;;;;;;;2.34;100.00;95081.47;10345939;28;20610;-71
2022/01/15 04:56:14;;;;;;;16.58;7.60;;;;;;;2.38;100.00;95088.75;10362613;28;20026;-79
2022/01/15 05:01:14;;;;;;;11.93;6.97;;;;;;;2.37;100.00;95081.84;10362456;28;20030;-73
2022/01/15 05:06:15;;;;;;;15.10;7.63;;;;;;;2.25;100.00;95088.84;10346394;28;20080;-79
2022/01/15 05:11:28;;;;;;;20.52;7.95;;;;;;;2.24;100.00;95089.88;10361684;28;20025;-72
2022/01/15 05:16:29;;;;;;;16.85;7.47;;;;;;;2.33;100.00;95096.56;10376499;28;20073;-76
2022/01/15 05:21:29;;;;;;;17.30;8.10;;;;;;;2.31;100.00;95100.44;10362461;28;20124;-72
2022/01/15 05:26:29;;;;;;;16.73;8.85;;;;;;;2.24;100.00;95112.94;10344220;28;20156;-74
2022/01/15 05:31:30;;;;;;;20.67;7.85;;;;;;;2.23;100.00;95120.06;10360257;28;20022;-73
2022/01/15 05:36:31;;;;;;;17.48;7.70;;;;;;;2.19;100.00;95117.03;10344405;28;20037;-76
2022/01/15 05:41:32;;;;;;;12.75;7.47;;;;;;;1.97;100.00;95129.75;10390017;28;20025;-72
2022/01/15 05:46:33;;;;;;;18.60;8.85;;;;;;;1.90;100.00;95139.56;10384646;28;20148;-71
2022/01/15 05:51:34;;;;;;;17.35;9.30;;;;;;;1.85;100.00;95140.19;10374335;28;20135;-73
2022/01/15 05:56:34;;;;;;;17.70;9.20;;;;;;;1.90;100.00;95141.41;10372246;28;20033;-75
2022/01/15 06:01:36;;;;;;;20.00;8.82;;;;;;;1.90;100.00;95139.56;10361773;28;20962;-72
2022/01/15 06:06:37;;;;;;;15.88;9.20;;;;;;;1.82;100.00;95159.16;10361539;28;20533;-78
2022/01/15 06:11:39;;;;;;;18.35;9.25;;;;;;;1.84;100.00;95153.66;10365036;28;20025;-73
2022/01/15 06:16:40;;;;;;;15.85;7.38;;;;;;;1.71;100.00;95152.66;10373080;28;20111;-72
2022/01/15 06:21:40;;;;;;;17.70;7.93;;;;;;;1.68;100.00;95176.13;10383458;28;20573;-73
2022/01/15 06:26:41;;;;;;;18.58;8.90;;;;;;;1.74;100.00;95204.44;10382344;28;20087;-78
2022/01/15 06:31:41;;;;;;;20.83;9.20;;;;;;;1.84;100.00;95198.69;10401163;28;20551;-77
2022/01/15 06:36:42;;;;;;;19.02;9.80;;;;;;;1.81;100.00;95205.22;10333910;28;20060;-72
2022/01/15 06:41:42;;;;;;;16.30;9.27;;;;;;;1.78;100.00;95216.25;10379229;28;20080;-75
2022/01/15 06:46:43;;;;;;;18.90;9.77;;;;;;;1.77;100.00;95230.50;10358645;28;20149;-72
2022/01/15 06:51:43;;;;;;;24.75;9.48;;;;;;;1.83;100.00;95221.75;10356808;28;20054;-71
2022/01/15 06:56:44;;;;;;;24.10;10.85;;;;;;;1.88;100.00;95226.41;10341516;28;20054;-71
2022/01/15 07:01:44;;;;;;;23.33;10.77;;;;;;;1.70;100.00;95224.41;10433165;22;20532;-77
2022/01/15 07:06:45;;;;;;;17.67;10.70;;;;;;;1.76;100.00;95231.53;10308160;28;20042;-72
2022/01/15 07:11:45;;;;;;;23.55;10.32;;;;;;;1.94;100.00;95244.16;10277242;28;20037;-73
2022/01/15 07:16:46;;;;;;;25.48;10.63;;;;;;;2.41;100.00;95246.69;10296642;28;20034;-72
2022/01/15 07:21:47;;;;;;;19.88;9.82;;;;;;;2.58;100.00;95251.53;10292806;28;20049;-72
2022/01/15 07:26:47;;;;;;;21.98;8.88;;;;;;;2.78;100.00;95265.53;10294901;28;20030;-73
2022/01/15 07:31:48;;;;;;;21.85;10.55;;;;;;;3.02;100.00;95265.84;10294263;28;20069;-73
2022/01/15 07:36:57;;;;;;;21.30;10.48;;;;;;;3.13;100.00;95251.88;10302793;28;20421;-75
2022/01/15 07:41:59;;;;;;;23.30;10.60;;;;;;;3.24;100.00;95269.00;10292121;28;20034;-75
2022/01/15 07:46:59;;;;;;;23.60;11.25;;;;;;;3.54;100.00;95274.50;10290740;28;20068;-77
2022/01/15 07:52:00;;;;;;;19.08;9.93;;;;;;;3.48;100.00;95280.69;10293605;28;20058;-78
2022/01/15 07:57:01;;;;;;;22.17;10.27;;;;;;;3.13;100.00;95286.41;10283468;28;20495;-78
2022/01/15 08:02:01;;;;;;;22.80;10.65;;;;;;;3.46;100.00;95296.03;10289425;28;20065;-80
2022/01/15 08:07:02;;;;;;;21.85;10.68;;;;;;;3.46;100.00;95311.16;10308431;28;20027;-78
2022/01/15 08:12:03;;;;;;;29.00;11.23;;;;;;;2.84;100.00;95320.44;10310261;23;20487;-75
2022/01/15 08:17:04;;;;;;;27.92;12.60;;;;;;;2.76;100.00;95322.50;10300370;28;20073;-72
2022/01/15 08:22:04;;;;;;;28.88;12.23;;;;;;;2.44;100.00;95344.41;10304071;28;20492;-74
2022/01/15 08:27:05;;;;;;;24.17;12.90;;;;;;;2.68;100.00;95340.31;10302258;28;20030;-71
2022/01/15 08:32:06;;;;;;;24.67;11.20;;;;;;;2.67;100.00;95343.97;10320338;28;20185;-71
2022/01/15 08:37:06;;;;;;;37.28;13.68;;;;;;;2.83;100.00;95355.16;10318364;28;20049;-72
2022/01/15 08:42:09;;;;;;;26.15;11.73;;;;;;;3.19;100.00;95354.59;10299109;28;20478;-71
2022/01/15 08:47:10;;;;;;;23.55;12.25;;;;;;;3.50;100.00;95370.81;10318867;28;20113;-71
2022/01/15 08:52:10;;;;;;;20.88;10.07;;;;;;;4.14;100.00;95368.94;10300808;28;20064;-77
2022/01/15 08:57:11;;;;;;;20.92;10.65;;;;;;;3.52;100.00;95385.53;10294423;28;20022;-76
2022/01/15 09:02:11;;;;;;;21.42;10.85;;;;;;;3.51;100.00;95385.75;10312806;28;20640;-75
2022/01/15 09:07:13;;;;;;;35.22;12.18;;;;;;;3.42;100.00;95385.97;10317906;28;20040;-77
2022/01/15 09:12:15;;;;;;;24.52;11.43;;;;;;;2.89;100.00;95397.63;10301898;28;20149;-72
2022/01/15 09:17:15;;;;;;;21.02;9.98;;;;;;;2.96;100.00;95383.50;10292430;28;20038;-73
2022/01/15 09:22:16;;;;;;;24.17;12.13;;;;;;;2.98;100.00;95376.97;10314381;28;20030;-71
2022/01/15 09:30:12;;;;;;;27.23;11.00;;;;;;;3.18;100.00;95381.38;10300726;28;20019;-75
2022/01/15 09:32:46;;;;;;;20.58;10.18;;;;;;;2.89;100.00;95376.38;10315249;28;20038;-76
2022/01/15 09:37:49;;;;;;;21.60;10.80;;;;;;;2.80;100.00;95388.25;10300734;28;20065;-76
2022/01/15 09:42:50;;;;;;;22.27;10.48;;;;;;;3.16;100.00;95386.91;10310212;28;20157;-72
2022/01/15 09:47:57;;;;;;;23.95;10.65;;;;;;;3.44;100.00;95369.81;10284303;28;20034;-75
2022/01/15 09:52:58;;;;;;;22.08;11.10;;;;;;;4.31;100.00;95369.22;10299170;28;20034;-76
2022/01/15 09:57:58;;;;;;;21.15;9.77;;;;;;;7.00;100.00;95367.25;10319895;28;20400;-75
2022/01/15 10:02:59;;;;;;;20.67;7.97;;;;;;;9.41;78.80;95356.25;10299746;28;20054;-71
2022/01/15 10:08:05;;;;;;;19.75;7.65;;;;;;;11.38;57.20;95356.81;10314959;28;20048;-74
2022/01/15 10:13:22;;;;;;;16.98;7.10;;;;;;;11.49;52.32;95352.28;10315374;28;20054;-79
2022/01/15 10:18:28;;;;;;;13.20;6.70;;;;;;;10.32;52.40;95357.44;10311379;28;20495;-73
2022/01/15 10:23:28;;;;;;;13.35;7.47;;;;;;;11.47;50.51;95344.47;10310658;28;20133;-74
2022/01/15 10:28:50;;;;;;;16.13;7.53;;;;;;;10.41;53.88;95334.44;10290530;28;20460;-72
2022/01/15 10:33:52;;;;;;;17.42;7.38;;;;;;;10.39;55.00;95338.47;10282284;28;20026;-72
2022/01/15 10:38:53;;;;;;;16.70;7.53;;;;;;;10.26;56.76;95328.94;10314176;28;20031;-72
2022/01/15 10:43:53;;;;;;;18.50;6.78;;;;;;;14.09;46.77;95323.66;10369834;23;20070;-70
2022/01/15 10:48:54;;;;;;;20.83;7.43;;;;;;;14.61;41.66;95330.28;10296884;28;20042;-74
2022/01/15 10:54:01;;;;;;;15.43;7.17;;;;;;;11.48;45.88;95329.91;10309927;28;20127;-70
2022/01/15 10:59:10;;;;;;;23.55;9.00;;;;;;;9.44;56.65;95339.66;10309701;28;20290;-72
2022/01/15 11:04:11;;;;;;;17.75;8.90;;;;;;;8.81;57.57;95350.66;10311560;28;20034;-72
2022/01/15 11:09:12;;;;;;;17.27;8.70;;;;;;;8.77;60.42;95346.06;10307330;28;20027;-75
2022/01/15 11:14:13;;;;;;;12.80;6.80;;;;;;;8.35;64.60;95341.91;10302182;28;20520;-72
2022/01/15 11:19:13;;;;;;;11.68;6.65;;;;;;;8.96;60.18;95325.13;10292156;28;20041;-70
2022/01/15 11:24:15;;;;;;;14.88;6.85;;;;;;;8.53;61.61;95330.16;10292271;28;20030;-74
2022/01/15 11:29:16;;;;;;;14.50;7.70;;;;;;;7.26;71.38;95320.47;10308064;28;20419;-70
2022/01/15 11:34:20;;;;;;;21.15;7.90;;;;;;;6.60;80.95;95317.22;10315619;28;20058;-76
2022/01/15 11:39:35;;;;;;;19.52;8.35;;;;;;;7.20;79.13;95318.75;10301305;28;20529;-70
2022/01/15 11:44:35;;;;;;;18.10;8.77;;;;;;;7.29;73.33;95317.31;10281216;28;20062;-71
2022/01/15 11:49:41;;;;;;;25.58;8.40;;;;;;;8.46;63.85;95316.13;10281763;28;20038;-72
2022/01/15 11:55:05;;;;;;;19.27;7.70;;;;;;;10.19;57.41;95312.22;10311334;28;20037;-70
2022/01/15 12:00:20;;;;;;;19.30;6.35;;;;;;;12.23;48.93;95297.22;10288694;28;20038;-71
2022/01/15 12:05:20;;;;;;;13.23;7.72;;;;;;;11.12;50.72;95302.88;10300765;28;20104;-71
2022/01/15 12:10:21;;;;;;;23.77;8.00;;;;;;;8.36;59.31;95314.88;10322147;28;20558;-71
2022/01/15 12:15:30;;;;;;;18.73;7.80;;;;;;;7.28;72.92;95313.00;10305074;28;20061;-70
2022/01/15 12:20:34;;;;;;;15.57;7.70;;;;;;;7.29;69.72;95311.16;10312117;28;20574;-72
2022/01/15 12:25:35;;;;;;;12.07;6.65;;;;;;;7.32;74.16;95306.13;10300040;28;20548;-71
2022/01/15 12:30:40;;;;;;;17.25;7.68;;;;;;;7.23;73.07;95320.97;10283605;28;20050;-75
2022/01/15 12:35:44;;;;;;;19.45;7.28;;;;;;;7.08;72.58;95315.31;10297330;28;20046;-72
2022/01/15 12:41:06;;;;;;;16.55;7.85;;;;;;;5.98;84.37;95332.63;10281626;28;20093;-75
2022/01/15 12:46:07;;;;;;;22.52;8.48;;;;;;;5.85;89.65;95321.31;10320372;28;20682;-73
2022/01/15 12:51:12;;;;;;;15.18;7.40;;;;;;;5.61;91.02;95324.75;10304989;28;20038;-74
2022/01/15 12:56:17;;;;;;;19.27;7.50;;;;;;;5.56;90.93;95319.25;10315328;28;20037;-73
2022/01/15 13:01:26;;;;;;;14.50;6.97;;;;;;;5.19;90.83;95321.19;10306622;28;20428;-75
2022/01/15 13:06:27;;;;;;;13.88;7.60;;;;;;;4.73;92.99;95318.88;10321913;28;20018;-72
2022/01/15 13:11:30;;;;;;;14.27;6.75;;;;;;;4.72;98.63;95316.44;10317348;28;20500;-70
2022/01/15 13:16:32;;;;;;;19.88;7.85;;;;;;;4.42;97.10;95320.63;10317269;28;20026;-75
2022/01/15 13:21:35;;;;;;;13.80;6.18;;;;;;;4.30;96.44;95322.38;10323299;28;20385;-76
2022/01/15 13:26:42;;;;;;;20.08;6.82;;;;;;;4.17;99.78;95325.16;10310783;28;20026;-75
2022/01/15 13:31:44;;;;;;;16.58;7.95;;;;;;;4.35;100.00;95341.16;10307135;28;20030;-71
2022/01/15 13:36:46;;;;;;;14.43;6.30;;;;;;;4.25;97.99;95333.66;10312201;28;20384;-74
2022/01/15 13:41:47;;;;;;;12.68;6.97;;;;;;;4.26;95.19;95340.63;10300144;28;20136;-75
2022/01/15 13:46:50;;;;;;;12.65;6.28;;;;;;;4.50;95.97;95329.34;10316557;28;20525;-75
2022/01/15 13:57:13;;;;;;;17.38;8.75;;;;;;;4.44;92.61;95317.75;10328366;28;20030;-72
2022/01/15 14:02:14;;;;;;;20.83;8.05;;;;;;;4.49;95.03;95314.41;10352863;28;20336;-72
2022/01/15 14:07:25;;;;;;;23.75;7.80;;;;;;;4.41;93.95;95334.97;10318358;28;20553;-75
2022/01/15 14:12:26;;;;;;;13.88;7.40;;;;;;;4.33;94.26;95332.59;10318022;28;20497;-70
2022/01/15 14:17:27;;;;;;;21.42;9.02;;;;;;;4.27;93.77;95328.16;10311161;28;20038;-71
2022/01/15 14:22:41;;;;;;;21.23;8.98;;;;;;;4.20;93.38;95346.00;10317618;28;20481;-72
2022/01/15 14:27:42;;;;;;;17.27;9.65;;;;;;;4.07;92.99;95338.94;10302949;28;20113;-75
2022/01/15 14:32:42;;;;;;;20.92;8.55;;;;;;;3.88;96.02;95338.06;10308791;28;20054;-70
2022/01/15 14:37:43;;;;;;;22.42;8.07;;;;;;;3.87;96.42;95342.56;10277963;28;20110;-72
2022/01/15 14:42:43;;;;;;;17.10;9.45;;;;;;;3.55;98.96;95347.88;10277177;28;20429;-71
2022/01/15 14:47:45;;;;;;;26.73;10.13;;;;;;;3.36;100.00;95346.16;10286980;28;20172;-70
2022/01/15 14:52:46;;;;;;;20.10;8.82;;;;;;;3.35;100.00;95352.50;10296274;28;20034;-77
2022/01/15 14:57:46;;;;;;;21.15;9.30;;;;;;;3.14;97.83;95354.44;10311886;28;20084;-76
2022/01/15 15:02:47;;;;;;;19.33;9.52;;;;;;;3.10;97.63;95357.72;10269716;28;20097;-70
2022/01/15 15:07:47;;;;;;;16.60;8.05;;;;;;;2.99;97.34;95362.66;10277475;28;20424;-71
2022/01/15 15:12:56;;;;;;;29.23;10.40;;;;;;;2.85;98.39;95361.91;10314922;28;20025;-74
2022/01/15 15:17:56;;;;;;;25.02;9.63;;;;;;;2.75;100.00;95361.53;10315621;28;20034;-71
2022/01/15 15:22:57;;;;;;;19.88;9.10;;;;;;;2.70;100.00;95366.63;10317502;28;20026;-75
2022/01/15 15:27:58;;;;;;;26.92;9.88;;;;;;;2.41;100.00;95370.56;10293712;28;20027;-71
2022/01/15 15:32:59;;;;;;;21.98;10.18;;;;;;;2.29;100.00;95375.66;10298656;28;20042;-75
2022/01/15 15:37:59;;;;;;;27.13;11.05;;;;;;;2.18;100.00;95393.84;10275810;28;20114;-75
2022/01/15 15:43:00;;;;;;;30.70;10.65;;;;;;;2.09;100.00;95403.00;10279801;28;20050;-72
2022/01/15 15:48:00;;;;;;;20.40;10.20;;;;;;;1.90;100.00;95409.94;10282766;28;20550;-73
2022/01/15 15:53:01;;;;;;;22.45;10.95;;;;;;;1.85;100.00;95415.00;10283198;28;20027;-75
2022/01/15 15:58:03;;;;;;;28.02;11.32;;;;;;;1.71;100.00;95424.78;10332274;28;20037;-74
2022/01/15 16:03:04;;;;;;;22.02;11.20;;;;;;;1.63;100.00;95427.59;10347882;28;20034;-72
2022/01/15 16:08:05;;;;;;;21.92;11.38;;;;;;;1.38;100.00;95436.06;10323362;28;20050;-72
2022/01/15 16:13:06;;;;;;;23.40;10.77;;;;;;;1.17;100.00;95443.13;10283550;28;20083;-71
2022/01/15 16:18:06;;;;;;;27.58;11.02;;;;;;;1.21;100.00;95445.38;10416442;23;20053;-71
2022/01/15 16:23:06;;;;;;;22.30;10.90;;;;;;;1.02;100.00;95445.91;10345886;28;20507;-74
2022/01/15 16:28:07;;;;;;;30.42;13.65;;;;;;;0.92;100.00;95450.75;10362867;28;20026;-71
2022/01/15 16:33:07;;;;;;;30.30;13.27;;;;;;;0.96;100.00;95452.00;10344798;28;20184;-73
2022/01/15 16:38:08;;;;;;;25.98;12.23;;;;;;;1.08;100.00;95449.59;10345526;28;20037;-71
2022/01/15 16:43:08;;;;;;;32.15;11.73;;;;;;;1.14;100.00;95455.94;10345635;28;20099;-72
2022/01/15 16:48:09;;;;;;;25.23;11.07;;;;;;;1.10;100.00;95450.19;10328517;28;20491;-71
2022/01/15 16:53:09;;;;;;;22.88;10.80;;;;;;;0.90;100.00;95447.47;10362591;28;20056;-71
2022/01/15 16:58:10;;;;;;;19.05;10.23;;;;;;;0.75;100.00;95438.81;10360560;28;20030;-70
2022/01/15 17:03:10;;;;;;;25.33;10.57;;;;;;;0.59;100.00;95451.34;10350592;28;20030;-75
2022/01/15 17:08:11;;;;;;;23.83;11.15;;;;;;;0.55;100.00;95459.84;10327130;28;20036;-77
2022/01/15 17:13:11;;;;;;;22.67;11.18;;;;;;;0.45;100.00;95458.34;10314407;28;20061;-75
2022/01/15 17:18:12;;;;;;;27.27;12.73;;;;;;;0.46;100.00;95453.88;10361032;28;20061;-70
2022/01/15 17:23:12;;;;;;;20.60;10.13;;;;;;;0.58;100.00;95464.75;10343852;28;20029;-72
2022/01/15 17:28:13;;;;;;;20.63;10.88;;;;;;;0.70;100.00;95473.81;10343953;28;20117;-72
2022/01/15 17:33:13;;;;;;;19.75;10.05;;;;;;;0.76;100.00;95461.63;10341667;28;20458;-72
2022/01/15 17:38:14;;;;;;;28.83;12.10;;;;;;;0.80;100.00;95458.41;10342364;28;20481;-71
2022/01/15 17:43:15;;;;;;;29.25;10.65;;;;;;;0.87;100.00;95461.09;10342783;28;20076;-73
2022/01/15 17:48:16;;;;;;;24.63;9.90;;;;;;;0.73;100.00;95472.59;10339468;28;20029;-72
2022/01/15 17:53:18;;;;;;;21.42;10.75;;;;;;;0.73;100.00;95477.91;10359497;28;20093;-72
2022/01/15 17:58:18;;;;;;;17.75;11.05;;;;;;;0.72;100.00;95486.84;10360615;28;20034;-72
2022/01/15 18:03:19;;;;;;;21.75;10.10;;;;;;;0.68;100.00;95489.88;10341730;28;20475;-72
2022/01/15 18:08:19;;;;;;;23.63;10.88;;;;;;;0.63;100.00;95507.34;10331011;28;20030;-72
2022/01/15 18:13:21;;;;;;;20.98;9.85;;;;;;;0.59;100.00;95514.00;10300484;28;20404;-76
2022/01/15 18:18:22;;;;;;;21.65;10.50;;;;;;;0.62;100.00;95508.34;10320187;28;20053;-72
2022/01/15 18:23:23;;;;;;;22.50;11.75;;;;;;;0.70;100.00;95510.00;10332832;28;20038;-75
2022/01/15 18:28:23;;;;;;;23.65;10.25;;;;;;;0.64;100.00;95514.22;10301485;28;20045;-71
2022/01/15 18:33:27;;;;;;;23.08;10.45;;;;;;;0.66;100.00;95520.16;10323107;28;20041;-72
2022/01/15 18:38:27;;;;;;;16.00;9.88;;;;;;;0.55;100.00;95521.50;10341246;28;20034;-72
2022/01/15 18:43:28;;;;;;;15.93;9.35;;;;;;;0.47;100.00;95530.38;10358053;28;20083;-72
2022/01/15 18:48:28;;;;;;;27.13;11.23;;;;;;;0.33;100.00;95537.38;10316108;28;20073;-70
2022/01/15 18:53:30;;;;;;;25.20;10.27;;;;;;;0.34;100.00;95541.66;10300721;28;20030;-71
2022/01/15 18:58:31;;;;;;;19.67;10.80;;;;;;;0.32;100.00;95556.06;10337221;28;20035;-71
2022/01/15 19:03:31;;;;;;;22.80;9.75;;;;;;;0.24;100.00;95542.97;10380984;28;20390;-71
2022/01/15 19:08:32;;;;;;;25.13;10.90;;;;;;;0.26;100.00;95551.53;10332413;28;20100;-75
2022/01/15 19:13:33;;;;;;;18.20;9.90;;;;;;;0.06;100.00;95549.50;10339127;28;20037;-73
2022/01/15 19:18:34;;;;;;;18.55;9.98;;;;;;;0.04;100.00;95548.88;10343939;28;20057;-72
2022/01/15 19:23:34;;;;;;;23.80;10.93;;;;;;;-0.03;100.00;95545.34;10340039;28;20034;-73
2022/01/15 19:28:35;;;;;;;24.08;10.55;;;;;;;-0.14;100.00;95567.78;10342468;28;20029;-71
2022/01/15 19:33:35;;;;;;;21.55;13.02;;;;;;;-0.24;100.00;95570.72;10348168;28;20037;-76
2022/01/15 19:38:38;;;;;;;24.73;10.70;;;;;;;-0.38;100.00;95597.97;10345748;28;20092;-71
2022/01/15 19:43:38;;;;;;;24.90;10.15;;;;;;;-0.30;100.00;95604.97;10344899;28;20040;-75
2022/01/15 19:48:39;;;;;;;22.75;10.70;;;;;;;-0.36;100.00;95643.50;10344328;28;20448;-76
2022/01/15 19:53:39;;;;;;;19.50;9.85;;;;;;;-0.44;100.00;95720.97;10343925;28;20080;-76
2022/01/15 19:58:40;;;;;;;22.48;9.85;;;;;;;-0.44;100.00;95625.13;10366698;28;20034;-72
2022/01/15 20:03:41;;;;;;;20.95;10.05;;;;;;;-0.53;100.00;95545.16;10337800;28;20061;-72
2022/01/15 20:08:42;;;;;;;26.08;13.68;;;;;;;-0.44;100.00;95530.03;10304711;28;20105;-76
2022/01/15 20:13:43;;;;;;;24.02;11.73;;;;;;;-0.41;100.00;95600.97;10323990;28;20575;-78
2022/01/15 20:18:44;;;;;;;29.35;13.18;;;;;;;-0.39;100.00;95694.03;10321521;28;20126;-73
2022/01/15 20:23:45;;;;;;;23.88;11.98;;;;;;;-0.37;100.00;95687.56;10289673;28;20489;-72
2022/01/15 20:28:45;;;;;;;25.90;12.05;;;;;;;-0.41;100.00;95614.19;10307094;28;20150;-72
2022/01/15 20:33:46;;;;;;;27.15;11.68;;;;;;;-0.46;100.00;95566.38;10308332;28;20480;-72
2022/01/15 20:38:47;;;;;;;22.25;10.73;;;;;;;-0.54;100.00;95491.53;10304949;28;20176;-72
2022/01/15 20:43:48;;;;;;;28.23;11.02;;;;;;;-0.56;100.00;95537.59;10305774;28;20050;-73
2022/01/15 20:48:49;;;;;;;26.17;11.95;;;;;;;-0.47;100.00;95555.00;10289408;28;20113;-72
2022/01/15 20:53:49;;;;;;;38.45;11.52;;;;;;;-0.50;100.00;95583.56;10313336;28;20026;-71
2022/01/15 20:58:52;;;;;;;25.25;10.40;;;;;;;-0.51;100.00;95625.00;10367159;28;20018;-70
2022/01/15 21:03:52;;;;;;;32.35;11.60;;;;;;;-0.53;100.00;95542.50;10388989;28;20026;-71
2022/01/15 21:08:55;;;;;;;24.90;10.63;;;;;;;-0.78;100.00;95539.34;10325216;28;20018;-72
2022/01/15 21:13:55;;;;;;;21.85;10.77;;;;;;;-0.70;100.00;95590.25;10325231;28;20034;-72
2022/01/15 21:18:56;;;;;;;23.40;11.15;;;;;;;-0.69;100.00;95591.03;10334619;28;20336;-72
2022/01/15 21:23:57;;;;;;;26.65;11.18;;;;;;;-0.67;100.00;95599.63;10339904;28;20037;-72
2022/01/15 21:28:57;;;;;;;27.63;11.23;;;;;;;-0.69;100.00;95588.41;10311824;28;20026;-76
2022/01/15 21:33:58;;;;;;;23.10;10.60;;;;;;;-0.72;100.00;95608.06;10324188;28;20030;-74
2022/01/15 21:39:00;;;;;;;21.10;9.85;;;;;;;-0.74;100.00;95593.41;10327901;28;20018;-73
2022/01/15 21:44:01;;;;;;;22.25;10.77;;;;;;;-0.81;100.00;95595.13;10339503;28;20049;-73
2022/01/15 21:49:01;;;;;;;20.67;9.68;;;;;;;-1.06;100.00;95606.75;10305544;28;20023;-71
2022/01/15 21:54:02;;;;;;;23.10;10.45;;;;;;;-1.09;100.00;95633.50;10326830;28;20057;-70
2022/01/15 21:59:03;;;;;;;24.20;9.93;;;;;;;-1.00;100.00;95646.63;10352350;28;20415;-71
2022/01/15 22:04:03;;;;;;;27.65;10.95;;;;;;;-1.22;100.00;95631.44;10321359;28;20056;-76
2022/01/15 22:09:05;;;;;;;20.65;10.05;;;;;;;-1.17;100.00;95627.44;10329270;28;20424;-70
2022/01/15 22:14:08;;;;;;;25.02;10.23;;;;;;;-1.32;100.00;95608.97;10345075;28;20088;-75
2022/01/15 22:19:08;;;;;;;24.63;11.82;;;;;;;-1.50;100.00;95601.34;10343391;28;20046;-72
2022/01/15 22:24:09;;;;;;;17.33;8.18;;;;;;;-1.43;100.00;95599.63;10320145;28;20563;-77
2022/01/15 22:29:12;;;;;;;22.90;9.68;;;;;;;-1.58;100.00;95596.94;10314660;28;20014;-76
2022/01/15 22:34:13;;;;;;;18.48;10.43;;;;;;;-1.40;100.00;95581.63;10343321;28;20037;-71
2022/01/15 22:39:13;;;;;;;19.95;10.25;;;;;;;-1.32;100.00;95577.31;10360990;28;20472;-75
2022/01/15 22:44:14;;;;;;;17.58;10.13;;;;;;;-1.42;100.00;95585.47;10344322;28;20029;-71
2022/01/15 22:49:14;;;;;;;22.60;9.57;;;;;;;-1.41;100.00;95600.28;10340228;28;20642;-71
2022/01/15 22:54:16;;;;;;;17.98;8.75;;;;;;;-1.64;100.00;95593.19;10303243;28;20030;-77
2022/01/15 22:59:18;;;;;;;19.85;8.70;;;;;;;-1.63;100.00;95586.09;10364766;28;20071;-75
2022/01/15 23:04:19;;;;;;;25.17;10.20;;;;;;;-1.55;100.00;95581.59;10327089;28;20030;-71
2022/01/15 23:09:19;;;;;;;24.60;9.57;;;;;;;-1.48;100.00;95591.44;10345049;28;20022;-71
2022/01/15 23:14:27;;;;;;;15.75;8.80;;;;;;;-1.64;100.00;95597.66;10320218;28;20041;-74
2022/01/15 23:19:29;;;;;;;;;;;;;;;-1.51;100.00;95594.44;10329702;28;20081;-75
2022/01/15 23:24:30;;;;;;;14.35;7.10;;;;;;;-1.55;100.00;95602.69;10343648;28;19959;-72
2022/01/15 23:29:31;;;;;;;12.70;6.57;;;;;;;-1.46;100.00;95606.09;10319216;28;20030;-72